Time;durP1;ratioP1;P1;durP2;ratioP2;P2;SDS_P1;SDS_P2;PMS_P1;PMS_P2;Temp;Humidity;BMP_temperature;BMP_pressure;BME280_temperature;BME280_humidity;BME280_pressure;Samples;Min_cycle;Max_cycle;Signal;HPM_P1;HPM_P2
2023/05/24 00:00:33;;;;;;;21.63;4.20;;;10.50;99.90;;;;;;4956162;28;20025;-73
2023/05/24 00:02:59;;;;;;;15.00;3.85;;;10.40;99.90;;;;;;4955869;29;20031;-72
2023/05/24 00:05:25;;;;;;;21.25;4.20;;;10.40;99.90;;;;;;4982694;28;20035;-73
2023/05/24 00:07:51;;;;;;;18.65;4.18;;;10.40;99.90;;;;;;4955953;28;20025;-72
2023/05/24 00:10:16;;;;;;;17.92;4.07;;;10.40;99.90;;;;;;4955791;29;20119;-72
2023/05/24 00:12:42;;;;;;;16.35;3.97;;;10.40;99.90;;;;;;4955606;29;20361;-73
2023/05/24 00:15:08;;;;;;;18.92;3.65;;;10.30;99.90;;;;;;4955731;28;20023;-73
2023/05/24 00:17:39;;;;;;;15.38;3.80;;;10.30;99.90;;;;;;4954515;29;20526;-73
2023/05/24 00:20:10;;;;;;;18.80;4.18;;;10.30;99.90;;;;;;4956114;28;20046;-73
2023/05/24 00:22:36;;;;;;;13.45;4.10;;;10.20;99.90;;;;;;4955820;28;20029;-73
2023/05/24 00:25:02;;;;;;;15.88;3.75;;;10.20;99.90;;;;;;4956139;28;20070;-74
2023/05/24 00:27:28;;;;;;;19.17;5.00;;;10.20;99.90;;;;;;4955772;29;20511;-74
2023/05/24 00:29:54;;;;;;;15.38;4.07;;;10.20;99.90;;;;;;4945935;28;20114;-73
2023/05/24 00:32:19;;;;;;;15.90;3.75;;;10.10;99.90;;;;;;4955555;28;20340;-72
2023/05/24 00:34:45;;;;;;;14.93;4.00;;;10.10;99.90;;;;;;4976193;28;20031;-73
2023/05/24 00:37:11;;;;;;;16.25;4.18;;;10.10;99.90;;;;;;4955314;28;20160;-73
2023/05/24 00:39:37;;;;;;;16.42;3.72;;;10.10;99.90;;;;;;4955336;29;20126;-73
2023/05/24 00:42:03;;;;;;;19.67;4.15;;;10.10;99.90;;;;;;4946767;28;20151;-73
2023/05/24 00:44:30;;;;;;;16.63;4.20;;;10.10;99.90;;;;;;4947548;29;20093;-73
2023/05/24 00:46:55;;;;;;;19.55;4.45;;;10.00;99.90;;;;;;4955516;28;20166;-73
2023/05/24 00:49:22;;;;;;;20.35;4.78;;;10.00;99.90;;;;;;4955344;28;20110;-73
2023/05/24 00:51:49;;;;;;;13.45;4.07;;;10.00;99.90;;;;;;4955417;28;20035;-73
2023/05/24 00:54:14;;;;;;;11.80;3.92;;;10.00;99.90;;;;;;4955072;28;20038;-73
2023/05/24 00:56:44;;;;;;;16.80;3.70;;;10.00;99.90;;;;;;4954883;29;20027;-72
2023/05/24 00:59:11;;;;;;;14.88;4.13;;;9.90;99.90;;;;;;4953448;28;20352;-73
2023/05/24 01:01:37;;;;;;;13.52;3.90;;;9.90;99.90;;;;;;4947865;28;20032;-73
2023/05/24 01:04:04;;;;;;;16.10;3.95;;;9.90;99.90;;;;;;4954007;29;20027;-74
2023/05/24 01:06:36;;;;;;;18.95;4.05;;;9.90;99.90;;;;;;4955055;29;20026;-73
2023/05/24 01:09:06;;;;;;;17.35;4.35;;;9.90;99.90;;;;;;4954765;29;20041;-72
2023/05/24 01:11:49;;;;;;;15.23;3.80;;;9.80;99.90;;;;;;4943371;29;20030;-73
2023/05/24 01:14:39;;;;;;;13.48;3.67;;;9.80;99.90;;;;;;4954492;28;20063;-72
2023/05/24 01:17:27;;;;;;;17.50;4.35;;;9.80;99.90;;;;;;4938830;29;20036;-73
2023/05/24 01:20:00;;;;;;;17.88;3.92;;;9.80;99.90;;;;;;4953753;29;20111;-73
2023/05/24 01:22:45;;;;;;;16.38;3.80;;;9.70;99.90;;;;;;4954601;29;20035;-73
2023/05/24 01:25:32;;;;;;;13.95;4.00;;;9.70;99.90;;;;;;4941462;29;20019;-73
2023/05/24 01:27:59;;;;;;;19.17;3.92;;;9.70;99.90;;;;;;4950156;29;20621;-73
2023/05/24 01:30:28;;;;;;;19.05;3.90;;;9.70;99.90;;;;;;4949066;29;20035;-73
2023/05/24 01:32:54;;;;;;;13.63;3.80;;;9.60;99.90;;;;;;4954112;28;20027;-73
2023/05/24 01:35:20;;;;;;;19.30;4.03;;;9.70;99.90;;;;;;4954149;29;20376;-73
2023/05/24 01:37:46;;;;;;;16.15;3.70;;;9.60;99.90;;;;;;4954527;29;20074;-72
2023/05/24 01:40:12;;;;;;;17.60;4.25;;;9.60;99.90;;;;;;4953862;28;20470;-72
2023/05/24 01:42:46;;;;;;;17.92;3.58;;;9.60;99.90;;;;;;4952254;28;20066;-72
2023/05/24 01:45:28;;;;;;;22.05;4.18;;;9.60;99.90;;;;;;4940489;28;20098;-72
2023/05/24 01:48:32;;;;;;;16.95;4.18;;;9.60;99.90;;;;;;4954009;28;20043;-72
2023/05/24 01:51:00;;;;;;;21.27;4.25;;;9.60;99.90;;;;;;4944199;29;20032;-72
2023/05/24 01:53:32;;;;;;;18.42;4.00;;;9.60;99.90;;;;;;4953972;28;20081;-72
2023/05/24 01:56:01;;;;;;;16.67;4.18;;;9.50;99.90;;;;;;4953960;28;20019;-73
2023/05/24 01:58:29;;;;;;;20.67;4.35;;;9.50;99.90;;;;;;4954077;28;20482;-73
2023/05/24 02:00:55;;;;;;;14.77;3.88;;;9.50;99.90;;;;;;4953835;28;20031;-72
2023/05/24 02:03:21;;;;;;;18.00;4.15;;;9.50;99.90;;;;;;4954030;28;20483;-72
2023/05/24 02:05:47;;;;;;;19.10;4.57;;;9.50;99.90;;;;;;4953624;29;20071;-72
2023/05/24 02:08:13;;;;;;;29.15;4.80;;;9.50;99.90;;;;;;4953561;28;20050;-72
2023/05/24 02:10:39;;;;;;;23.50;5.18;;;9.50;99.90;;;;;;4947735;28;20406;-73
2023/05/24 02:13:06;;;;;;;18.05;4.38;;;9.50;99.90;;;;;;4953630;28;20027;-73
2023/05/24 02:15:34;;;;;;;18.60;4.15;;;9.50;99.90;;;;;;4950188;28;20487;-72
2023/05/24 02:18:00;;;;;;;25.17;4.80;;;9.50;99.90;;;;;;4953791;28;20030;-72
2023/05/24 02:20:29;;;;;;;20.70;4.55;;;9.50;99.90;;;;;;4940491;28;20035;-72
2023/05/24 02:22:56;;;;;;;19.55;5.22;;;9.40;99.90;;;;;;4944936;29;20030;-73
2023/05/24 02:25:22;;;;;;;20.70;4.90;;;9.40;99.90;;;;;;4950420;28;20050;-72
2023/05/24 02:27:54;;;;;;;18.25;4.60;;;9.40;99.90;;;;;;4949094;28;20070;-72
2023/05/24 02:30:19;;;;;;;23.98;4.68;;;9.40;99.90;;;;;;4953608;29;20412;-73
2023/05/24 02:32:45;;;;;;;24.70;4.80;;;9.40;99.90;;;;;;4953081;29;20032;-73
2023/05/24 02:35:11;;;;;;;21.30;5.32;;;9.40;99.90;;;;;;4938813;29;20023;-73
2023/05/24 02:37:37;;;;;;;18.20;4.28;;;9.40;99.90;;;;;;4953842;28;20035;-73
2023/05/24 02:40:04;;;;;;;13.95;4.05;;;9.40;99.90;;;;;;4953440;28;20051;-73
2023/05/24 02:42:29;;;;;;;23.60;5.15;;;9.40;99.90;;;;;;4953702;29;20027;-74
2023/05/24 02:44:55;;;;;;;24.88;5.05;;;9.40;99.90;;;;;;4953040;29;20086;-74
2023/05/24 02:47:20;;;;;;;15.10;4.50;;;9.30;99.90;;;;;;4984422;28;20062;-74
2023/05/24 02:49:46;;;;;;;19.00;5.20;;;9.30;99.90;;;;;;4953564;29;20027;-74
2023/05/24 02:52:12;;;;;;;17.98;4.55;;;9.30;99.90;;;;;;4953692;29;20023;-73
2023/05/24 02:54:38;;;;;;;21.55;4.55;;;9.30;99.90;;;;;;4955511;29;20074;-74
2023/05/24 02:57:05;;;;;;;18.55;4.70;;;9.30;99.90;;;;;;4948412;28;20707;-73
2023/05/24 02:59:32;;;;;;;18.67;5.22;;;9.30;99.90;;;;;;4961025;29;20478;-73
2023/05/24 03:01:58;;;;;;;18.50;4.88;;;9.30;99.90;;;;;;4947797;29;20067;-73
2023/05/24 03:04:24;;;;;;;20.27;4.40;;;9.30;99.90;;;;;;4960073;29;20034;-73
2023/05/24 03:06:49;;;;;;;18.80;4.45;;;9.30;99.90;;;;;;4945545;28;20032;-74
2023/05/24 03:09:15;;;;;;;17.60;4.55;;;9.30;99.90;;;;;;4936181;29;20028;-73
2023/05/24 03:11:41;;;;;;;18.27;5.18;;;9.30;99.90;;;;;;4969475;28;20036;-74
2023/05/24 03:14:09;;;;;;;15.02;4.32;;;9.30;99.90;;;;;;4934742;29;20387;-73
2023/05/24 03:16:35;;;;;;;16.35;4.35;;;9.30;99.90;;;;;;4946125;29;20030;-73
2023/05/24 03:19:02;;;;;;;21.48;4.60;;;9.20;99.90;;;;;;4953939;28;20030;-74
2023/05/24 03:21:27;;;;;;;19.92;4.90;;;9.30;99.90;;;;;;4953723;28;20036;-73
2023/05/24 03:23:53;;;;;;;16.45;4.60;;;9.20;99.90;;;;;;4954433;28;20030;-74
2023/05/24 03:26:19;;;;;;;19.85;5.10;;;9.20;99.90;;;;;;4956502;28;20659;-74
2023/05/24 03:28:46;;;;;;;17.00;5.15;;;9.20;99.90;;;;;;4957120;28;20347;-74
2023/05/24 03:31:12;;;;;;;14.45;4.22;;;9.20;99.90;;;;;;4953306;28;20039;-73
2023/05/24 03:33:38;;;;;;;18.17;5.50;;;9.20;99.90;;;;;;4937708;29;20032;-73
2023/05/24 03:36:04;;;;;;;22.38;5.47;;;9.20;99.90;;;;;;4952041;29;20027;-73
2023/05/24 03:38:32;;;;;;;17.90;4.82;;;9.20;99.90;;;;;;4956373;28;20491;-72
2023/05/24 03:40:58;;;;;;;18.88;5.18;;;9.20;99.90;;;;;;4956611;28;20607;-73
2023/05/24 03:43:24;;;;;;;17.20;5.25;;;9.30;99.90;;;;;;4953372;29;20054;-73
2023/05/24 03:45:50;;;;;;;15.23;4.57;;;9.20;99.90;;;;;;4947672;28;20028;-73
2023/05/24 03:48:16;;;;;;;17.77;5.25;;;9.20;99.90;;;;;;4955922;29;20423;-74
2023/05/24 03:50:41;;;;;;;17.55;4.93;;;9.20;99.90;;;;;;4956639;28;20051;-73
2023/05/24 03:53:08;;;;;;;16.63;5.05;;;9.20;99.90;;;;;;4954304;29;20050;-74
2023/05/24 03:55:34;;;;;;;22.65;5.65;;;9.20;99.90;;;;;;4943590;29;20568;-74
2023/05/24 03:57:59;;;;;;;22.15;6.03;;;9.20;99.90;;;;;;4949151;29;20079;-73
2023/05/24 04:00:25;;;;;;;12.18;4.50;;;9.20;99.90;;;;;;4945099;29;20462;-73
2023/05/24 04:02:50;;;;;;;20.60;5.47;;;9.20;99.90;;;;;;4955718;29;20027;-73
2023/05/24 04:05:16;;;;;;;19.55;5.88;;;9.20;99.90;;;;;;4955959;28;20544;-74
2023/05/24 04:07:44;;;;;;;17.30;5.20;;;9.30;99.90;;;;;;4955958;29;20470;-74
2023/05/24 04:10:09;;;;;;;15.98;4.93;;;9.30;99.90;;;;;;4956524;29;20023;-74
2023/05/24 04:12:35;;;;;;;20.15;5.80;;;9.30;99.90;;;;;;4954096;28;20059;-74
2023/05/24 04:15:01;;;;;;;16.50;5.60;;;9.30;99.90;;;;;;4956432;29;20027;-74
2023/05/24 04:17:29;;;;;;;21.73;5.25;;;9.30;99.90;;;;;;4955998;28;20026;-73
2023/05/24 04:19:55;;;;;;;16.83;5.10;;;9.30;99.90;;;;;;4956160;29;20031;-73
2023/05/24 04:22:21;;;;;;;21.80;5.75;;;9.30;99.90;;;;;;4955904;29;20070;-73
2023/05/24 04:24:46;;;;;;;16.80;5.22;;;9.40;99.90;;;;;;4956149;28;20106;-72
2023/05/24 04:27:12;;;;;;;16.05;5.35;;;9.50;99.90;;;;;;4956035;28;20024;-73
2023/05/24 04:29:44;;;;;;;19.42;5.38;;;9.50;99.90;;;;;;4942320;28;20036;-73
2023/05/24 04:32:13;;;;;;;18.33;5.93;;;9.50;99.90;;;;;;4956040;28;20015;-73
2023/05/24 04:34:41;;;;;;;26.02;6.45;;;9.60;99.90;;;;;;4938281;29;20075;-72
2023/05/24 04:37:07;;;;;;;22.20;4.97;;;9.70;99.90;;;;;;4952268;29;20026;-73
2023/05/24 04:39:32;;;;;;;21.15;5.70;;;9.80;99.90;;;;;;4955483;29;20067;-73
2023/05/24 04:41:59;;;;;;;17.80;5.40;;;9.80;99.90;;;;;;4955008;29;20074;-73
2023/05/24 04:44:25;;;;;;;20.92;5.75;;;9.90;99.90;;;;;;4948000;28;20434;-73
2023/05/24 04:46:50;;;;;;;21.92;6.15;;;10.00;99.90;;;;;;4954441;29;20047;-73
2023/05/24 04:49:16;;;;;;;24.00;5.75;;;10.10;99.90;;;;;;4954410;28;20065;-73
2023/05/24 04:51:42;;;;;;;22.15;5.65;;;10.20;99.90;;;;;;4951919;29;20019;-73
2023/05/24 04:54:08;;;;;;;23.77;5.70;;;10.30;99.90;;;;;;4954737;28;20062;-73
2023/05/24 04:56:35;;;;;;;28.00;5.75;;;10.30;99.90;;;;;;4954931;28;20028;-73
2023/05/24 04:59:01;;;;;;;23.50;6.13;;;10.40;99.90;;;;;;4946818;28;20047;-73
2023/05/24 05:01:27;;;;;;;21.42;5.10;;;10.50;99.90;;;;;;4951632;29;20402;-73
2023/05/24 05:03:52;;;;;;;18.60;5.03;;;10.50;99.90;;;;;;4954586;29;20030;-74
2023/05/24 05:06:18;;;;;;;21.35;6.07;;;10.60;99.90;;;;;;4954291;28;20031;-73
2023/05/24 05:08:43;;;;;;;26.75;5.32;;;10.60;99.90;;;;;;4945482;29;20023;-72
2023/05/24 05:11:09;;;;;;;27.33;5.75;;;10.70;99.90;;;;;;4954625;29;20521;-72
2023/05/24 05:13:34;;;;;;;25.17;5.68;;;10.70;99.90;;;;;;4953155;29;20020;-72
2023/05/24 05:16:01;;;;;;;29.27;5.20;;;10.80;99.90;;;;;;4954479;29;20030;-74
2023/05/24 05:18:26;;;;;;;27.27;5.07;;;10.80;99.90;;;;;;4951512;28;20039;-73
2023/05/24 05:20:53;;;;;;;26.17;5.50;;;10.90;99.90;;;;;;4949722;29;20081;-73
2023/05/24 05:23:19;;;;;;;27.45;5.60;;;10.90;99.90;;;;;;4953652;29;20035;-73
2023/05/24 05:25:44;;;;;;;21.23;4.75;;;11.00;99.90;;;;;;4941959;28;20039;-72
2023/05/24 05:28:10;;;;;;;26.77;5.53;;;11.00;99.90;;;;;;4953812;28;20051;-73
2023/05/24 05:30:35;;;;;;;23.75;5.07;;;11.10;99.90;;;;;;4951148;29;20033;-73
2023/05/24 05:33:04;;;;;;;22.23;5.60;;;11.20;99.90;;;;;;4951012;29;20027;-73
2023/05/24 05:35:30;;;;;;;24.67;4.97;;;11.30;99.90;;;;;;4951427;28;20525;-73
2023/05/24 05:37:56;;;;;;;23.67;4.70;;;11.40;99.90;;;;;;4952369;29;20027;-73
2023/05/24 05:40:21;;;;;;;21.67;4.80;;;11.40;99.90;;;;;;4949450;29;20410;-73
2023/05/24 05:42:47;;;;;;;18.38;4.50;;;11.50;99.90;;;;;;4950431;28;20031;-73
2023/05/24 05:45:15;;;;;;;22.85;4.50;;;11.50;99.90;;;;;;4953030;28;20073;-72
2023/05/24 05:47:42;;;;;;;27.90;5.05;;;11.60;99.90;;;;;;4946913;29;20042;-72
2023/05/24 05:50:08;;;;;;;19.77;4.25;;;11.70;99.90;;;;;;4954440;29;20559;-73
2023/05/24 05:52:33;;;;;;;26.40;5.25;;;11.80;99.90;;;;;;4953768;28;20023;-73
2023/05/24 05:54:59;;;;;;;22.00;4.70;;;11.80;99.90;;;;;;4950483;29;20043;-73
2023/05/24 05:57:25;;;;;;;20.15;4.45;;;11.90;99.90;;;;;;4949234;29;20031;-73
2023/05/24 05:59:51;;;;;;;18.35;4.70;;;12.00;99.90;;;;;;4953945;28;20052;-73
2023/05/24 06:02:17;;;;;;;22.23;4.65;;;12.00;99.90;;;;;;4953696;28;20019;-73
2023/05/24 06:04:44;;;;;;;26.63;5.10;;;12.00;99.90;;;;;;4954280;28;20038;-73
2023/05/24 06:07:10;;;;;;;20.95;4.60;;;12.10;99.90;;;;;;4953418;29;20158;-73
2023/05/24 06:09:35;;;;;;;20.15;4.53;;;12.20;99.90;;;;;;4953574;28;20110;-73
2023/05/24 06:12:01;;;;;;;23.10;4.55;;;12.20;99.90;;;;;;4953967;29;20050;-73
2023/05/24 06:14:27;;;;;;;20.90;4.88;;;12.30;99.90;;;;;;4940523;28;20036;-72
2023/05/24 06:16:53;;;;;;;24.08;4.40;;;12.30;99.90;;;;;;4953741;28;20444;-73
2023/05/24 06:19:19;;;;;;;18.88;4.10;;;12.40;99.90;;;;;;4953918;28;20490;-73
2023/05/24 06:21:49;;;;;;;31.00;4.78;;;12.50;99.90;;;;;;4953889;28;20024;-74
2023/05/24 06:24:21;;;;;;;24.90;4.45;;;12.50;99.90;;;;;;4950648;29;20046;-73
2023/05/24 06:26:48;;;;;;;21.38;4.25;;;12.60;99.90;;;;;;4953755;29;20110;-73
2023/05/24 06:29:13;;;;;;;19.65;4.82;;;12.60;99.90;;;;;;4954236;28;20038;-73
2023/05/24 06:31:39;;;;;;;19.48;4.32;;;12.70;99.90;;;;;;4954006;29;20467;-73
2023/05/24 06:34:05;;;;;;;18.38;4.15;;;12.70;99.90;;;;;;4954050;29;20546;-73
2023/05/24 06:36:34;;;;;;;17.80;3.92;;;12.80;99.90;;;;;;4952638;29;20126;-73
2023/05/24 06:39:00;;;;;;;16.85;4.20;;;12.80;99.90;;;;;;4953994;28;20126;-73
2023/05/24 06:41:28;;;;;;;18.67;4.43;;;12.90;99.90;;;;;;4949794;28;20083;-74
2023/05/24 06:43:54;;;;;;;18.10;3.70;;;12.90;99.90;;;;;;4944684;29;20024;-74
2023/05/24 06:46:19;;;;;;;16.58;3.83;;;12.90;99.90;;;;;;4953998;28;20111;-74
2023/05/24 06:48:45;;;;;;;16.83;3.25;;;12.90;99.90;;;;;;4953646;29;20023;-74
2023/05/24 06:51:10;;;;;;;20.35;4.10;;;12.90;99.90;;;;;;4952377;29;20506;-74
2023/05/24 06:53:36;;;;;;;21.15;4.05;;;13.00;99.90;;;;;;4940295;29;20020;-73
2023/05/24 06:56:02;;;;;;;18.25;4.03;;;13.00;99.90;;;;;;4942138;29;20032;-72
2023/05/24 06:58:27;;;;;;;19.70;4.25;;;13.10;99.90;;;;;;4955566;29;20027;-73
2023/05/24 07:00:53;;;;;;;16.88;3.55;;;13.20;99.90;;;;;;4947857;29;20043;-73
2023/05/24 07:03:20;;;;;;;18.52;3.72;;;13.30;99.90;;;;;;4951417;29;20103;-73
2023/05/24 07:05:45;;;;;;;15.82;3.53;;;13.30;99.90;;;;;;4945792;29;20016;-73
2023/05/24 07:08:12;;;;;;;19.50;3.83;;;13.40;99.90;;;;;;4957338;28;20493;-73
2023/05/24 07:10:38;;;;;;;13.00;3.10;;;13.50;99.90;;;;;;4944162;29;20044;-73
2023/05/24 07:13:03;;;;;;;14.18;3.25;;;13.60;99.90;;;;;;4963024;28;20023;-73
2023/05/24 07:15:29;;;;;;;15.90;3.60;;;13.70;99.90;;;;;;4968047;29;20030;-73
2023/05/24 07:17:55;;;;;;;13.25;3.40;;;13.70;99.90;;;;;;4965436;29;20458;-74
2023/05/24 07:20:20;;;;;;;21.63;3.35;;;13.80;99.90;;;;;;4943772;29;20020;-74
2023/05/24 07:22:46;;;;;;;18.17;3.33;;;13.90;99.90;;;;;;4957273;28;20017;-74
2023/05/24 07:25:11;;;;;;;20.52;3.63;;;14.00;99.90;;;;;;4955277;28;20019;-75
2023/05/24 07:27:37;;;;;;;14.02;3.22;;;14.00;99.90;;;;;;4956498;28;20082;-75
2023/05/24 07:30:04;;;;;;;14.57;3.25;;;14.00;99.90;;;;;;4956082;28;20034;-75
2023/05/24 07:32:31;;;;;;;16.80;3.63;;;14.00;99.90;;;;;;4956651;28;20049;-75
2023/05/24 07:34:57;;;;;;;20.38;3.80;;;14.10;99.90;;;;;;4955122;28;20082;-74
2023/05/24 07:37:23;;;;;;;13.68;3.20;;;14.20;99.90;;;;;;4955176;28;20031;-73
2023/05/24 07:39:50;;;;;;;15.85;3.60;;;14.30;99.90;;;;;;4956264;28;20055;-73
2023/05/24 07:42:16;;;;;;;18.95;3.65;;;14.40;99.90;;;;;;4956484;28;20362;-73
2023/05/24 07:44:42;;;;;;;19.48;3.50;;;14.40;99.90;;;;;;4956188;29;20031;-74
2023/05/24 07:47:07;;;;;;;18.30;3.65;;;14.40;99.90;;;;;;4956056;29;20023;-74
2023/05/24 07:49:33;;;;;;;17.27;3.33;;;14.40;99.90;;;;;;4950979;29;20078;-73
2023/05/24 07:51:59;;;;;;;16.95;3.47;;;14.40;99.90;;;;;;4956588;28;20038;-74
2023/05/24 07:54:25;;;;;;;18.45;3.55;;;14.60;99.90;;;;;;4956528;29;20493;-74
2023/05/24 07:56:51;;;;;;;15.57;3.75;;;14.70;99.90;;;;;;4950671;29;20023;-74
2023/05/24 07:59:17;;;;;;;18.00;3.90;;;14.80;99.90;;;;;;4948056;29;20030;-74
2023/05/24 08:01:42;;;;;;;21.83;4.05;;;15.00;99.90;;;;;;4954476;29;20119;-74
2023/05/24 08:04:09;;;;;;;17.17;3.33;;;15.20;99.90;;;;;;4956692;29;20019;-74
2023/05/24 08:06:34;;;;;;;15.20;3.67;;;15.30;99.90;;;;;;4946734;29;20038;-75
2023/05/24 08:09:02;;;;;;;17.17;3.92;;;15.30;99.90;;;;;;4955492;28;20023;-75
2023/05/24 08:11:28;;;;;;;15.32;3.92;;;15.40;99.90;;;;;;4956882;28;20532;-75
2023/05/24 08:13:54;;;;;;;17.90;3.80;;;15.40;99.90;;;;;;4957391;28;20116;-73
2023/05/24 08:16:19;;;;;;;16.45;4.10;;;15.40;99.90;;;;;;4956199;28;20027;-73
2023/05/24 08:18:45;;;;;;;14.13;3.08;;;15.40;99.90;;;;;;4955736;29;20382;-74
2023/05/24 08:21:11;;;;;;;21.83;3.95;;;15.40;99.90;;;;;;4949752;29;20050;-73
2023/05/24 08:23:36;;;;;;;16.08;3.38;;;15.40;99.90;;;;;;4951082;29;20026;-74
2023/05/24 08:26:02;;;;;;;16.13;3.80;;;15.50;99.90;;;;;;4955574;29;20342;-73
2023/05/24 08:28:28;;;;;;;14.73;3.42;;;15.50;99.90;;;;;;4955315;29;20031;-74
2023/05/24 08:30:54;;;;;;;16.52;3.30;;;15.60;99.90;;;;;;4955267;28;20031;-73
2023/05/24 08:33:21;;;;;;;17.10;3.72;;;15.70;99.90;;;;;;4955131;29;20375;-73
2023/05/24 08:35:48;;;;;;;22.48;4.22;;;16.00;99.90;;;;;;4956067;29;20466;-73
2023/05/24 08:38:14;;;;;;;17.95;3.78;;;16.00;99.90;;;;;;4955395;28;20027;-73
2023/05/24 08:40:39;;;;;;;15.88;3.45;;;16.00;99.90;;;;;;4956242;29;20031;-73
2023/05/24 08:43:10;;;;;;;13.82;3.13;;;16.10;99.90;;;;;;4942604;29;20018;-74
2023/05/24 08:45:39;;;;;;;11.57;3.20;;;16.20;99.90;;;;;;4957817;28;20038;-74
2023/05/24 08:48:05;;;;;;;16.92;3.00;;;16.40;99.90;;;;;;4956549;28;20027;-75
2023/05/24 08:50:32;;;;;;;15.48;3.20;;;16.60;99.90;;;;;;4957457;28;20023;-74
2023/05/24 08:53:00;;;;;;;12.48;3.10;;;16.70;99.90;;;;;;4957106;28;20027;-74
2023/05/24 08:55:27;;;;;;;13.68;3.45;;;16.60;99.90;;;;;;4955695;28;20028;-73
2023/05/24 08:57:55;;;;;;;12.32;3.05;;;16.50;99.90;;;;;;4955463;28;20169;-73
2023/05/24 09:00:21;;;;;;;14.70;3.08;;;16.60;99.90;;;;;;4955471;28;20354;-74
2023/05/24 09:02:47;;;;;;;16.23;3.35;;;16.70;99.90;;;;;;4953628;28;20027;-72
2023/05/24 09:05:20;;;;;;;12.93;3.13;;;16.70;99.90;;;;;;4953897;28;20023;-72
2023/05/24 09:07:48;;;;;;;14.52;3.58;;;16.80;99.90;;;;;;4953450;28;20031;-73
2023/05/24 09:10:14;;;;;;;18.85;3.45;;;17.10;99.90;;;;;;4953782;28;20070;-72
2023/05/24 09:12:45;;;;;;;11.43;3.40;;;17.40;99.90;;;;;;4954643;28;20047;-73
2023/05/24 09:15:11;;;;;;;17.80;3.83;;;17.50;99.90;;;;;;4954054;28;20031;-72
2023/05/24 09:17:39;;;;;;;11.73;2.80;;;17.60;99.90;;;;;;4953561;28;20099;-73
2023/05/24 09:20:09;;;;;;;15.70;3.58;;;17.70;99.90;;;;;;4954237;28;20051;-73
2023/05/24 09:22:37;;;;;;;14.40;3.10;;;17.80;99.90;;;;;;4953722;29;20028;-72
2023/05/24 09:25:04;;;;;;;14.48;3.35;;;18.00;99.90;;;;;;4954788;29;20061;-73
2023/05/24 09:27:33;;;;;;;11.23;3.15;;;18.00;99.90;;;;;;4940705;29;20031;-72
2023/05/24 09:29:58;;;;;;;13.55;3.25;;;18.00;99.90;;;;;;4954204;28;20030;-73
2023/05/24 09:32:24;;;;;;;12.25;3.17;;;18.20;99.90;;;;;;4949701;29;20023;-73
2023/05/24 09:34:56;;;;;;;14.32;3.33;;;18.30;99.90;;;;;;4940182;29;20034;-73
2023/05/24 09:37:26;;;;;;;16.10;3.22;;;18.30;99.90;;;;;;4954433;28;20151;-72
2023/05/24 09:39:52;;;;;;;14.90;3.55;;;18.30;99.90;;;;;;4953830;28;20163;-73
2023/05/24 09:42:23;;;;;;;17.25;3.90;;;18.20;99.90;;;;;;4954318;29;20029;-71
2023/05/24 09:44:59;;;;;;;13.27;3.25;;;18.20;99.90;;;;;;4954012;28;20015;-73
2023/05/24 09:47:29;;;;;;;20.05;4.03;;;18.20;99.90;;;;;;4953670;28;20082;-73
2023/05/24 09:49:55;;;;;;;14.57;3.67;;;18.30;99.90;;;;;;4953451;28;20050;-72
2023/05/24 09:52:22;;;;;;;19.20;3.53;;;18.50;99.90;;;;;;4953626;28;20679;-73
2023/05/24 09:54:48;;;;;;;18.45;3.67;;;18.70;99.90;;;;;;4953790;29;20082;-73
2023/05/24 09:57:17;;;;;;;11.82;2.80;;;18.90;99.90;;;;;;4953866;29;20023;-73
2023/05/24 09:59:43;;;;;;;14.50;3.03;;;18.90;99.90;;;;;;4953807;29;20023;-73
2023/05/24 10:02:10;;;;;;;16.83;4.03;;;18.90;99.80;;;;;;4954082;28;20820;-73
2023/05/24 10:04:39;;;;;;;16.63;3.55;;;19.00;99.50;;;;;;4952283;28;20365;-73
2023/05/24 10:07:08;;;;;;;15.65;3.67;;;19.20;98.80;;;;;;4935519;29;20028;-73
2023/05/24 10:09:34;;;;;;;15.20;3.50;;;19.20;99.00;;;;;;4934608;29;20031;-73
2023/05/24 10:12:05;;;;;;;11.88;2.78;;;19.20;99.60;;;;;;4951482;29;20451;-73
2023/05/24 10:14:37;;;;;;;15.57;3.50;;;19.20;98.90;;;;;;4953930;28;20030;-73
2023/05/24 10:17:06;;;;;;;16.48;3.75;;;19.20;97.70;;;;;;4953524;29;20534;-74
2023/05/24 10:19:37;;;;;;;12.25;3.20;;;19.20;98.10;;;;;;4953358;28;20141;-73
2023/05/24 10:22:07;;;;;;;11.60;3.03;;;19.30;97.10;;;;;;4953743;28;20438;-73
2023/05/24 10:24:38;;;;;;;14.20;3.30;;;19.20;95.60;;;;;;4948901;29;20520;-73
2023/05/24 10:27:08;;;;;;;16.38;4.00;;;19.20;96.70;;;;;;4945518;29;20078;-73
2023/05/24 10:29:45;;;;;;;13.13;3.53;;;19.30;96.80;;;;;;4953289;28;20047;-73
2023/05/24 10:32:14;;;;;;;13.38;3.20;;;19.60;97.50;;;;;;4955134;28;20023;-73
2023/05/24 10:34:41;;;;;;;13.15;3.00;;;19.80;97.20;;;;;;4943588;28;20033;-73
2023/05/24 10:37:08;;;;;;;16.85;3.30;;;20.00;96.60;;;;;;4957702;28;20027;-73
2023/05/24 10:39:34;;;;;;;11.57;2.90;;;20.20;96.00;;;;;;4957423;28;20079;-74
2023/05/24 10:42:05;;;;;;;15.90;3.40;;;20.50;95.00;;;;;;4955948;28;20522;-73
2023/05/24 10:44:31;;;;;;;11.75;3.03;;;20.60;93.20;;;;;;4957419;28;20027;-73
2023/05/24 10:47:08;;;;;;;12.55;3.40;;;20.40;91.30;;;;;;4957077;28;20054;-74
2023/05/24 10:49:35;;;;;;;11.85;2.97;;;20.00;87.20;;;;;;4957047;29;20098;-73
2023/05/24 10:52:06;;;;;;;11.20;2.75;;;19.50;86.50;;;;;;4956918;29;20426;-73
2023/05/24 10:54:31;;;;;;;10.55;2.95;;;19.30;89.10;;;;;;4956890;28;20031;-72
2023/05/24 10:57:03;;;;;;;8.45;2.53;;;19.30;90.50;;;;;;4957184;28;20098;-73
2023/05/24 10:59:37;;;;;;;10.32;2.55;;;19.40;89.70;;;;;;4955334;28;20027;-75
2023/05/24 11:02:08;;;;;;;11.10;3.10;;;19.70;83.20;;;;;;4944031;29;20043;-76
2023/05/24 11:04:49;;;;;;;10.85;2.88;;;19.60;80.50;;;;;;4957061;28;20042;-76
2023/05/24 11:07:15;;;;;;;11.50;2.60;;;19.50;82.60;;;;;;4954476;29;20031;-76
2023/05/24 11:09:45;;;;;;;11.95;2.80;;;19.40;80.40;;;;;;4956704;28;20038;-76
2023/05/24 11:12:16;;;;;;;13.25;2.97;;;19.30;80.60;;;;;;4957533;28;20023;-76
2023/05/24 11:14:47;;;;;;;8.95;2.70;;;19.20;81.30;;;;;;4963650;28;20107;-76
2023/05/24 11:17:12;;;;;;;11.60;3.30;;;19.30;80.20;;;;;;4970045;28;20027;-76
2023/05/24 11:19:49;;;;;;;11.30;2.90;;;19.30;79.30;;;;;;4966954;29;20374;-75
2023/05/24 11:22:15;;;;;;;11.90;2.80;;;19.30;81.20;;;;;;4957960;29;20078;-75
2023/05/24 11:24:44;;;;;;;11.02;2.78;;;19.50;81.30;;;;;;4955286;29;20031;-75
2023/05/24 11:27:13;;;;;;;10.35;3.08;;;19.70;81.20;;;;;;4956567;29;20039;-75
2023/05/24 11:29:40;;;;;;;10.60;2.78;;;19.90;80.40;;;;;;4956673;29;20074;-75
2023/05/24 11:32:06;;;;;;;14.75;3.33;;;20.00;79.50;;;;;;4956318;29;20411;-76
2023/05/24 11:34:33;;;;;;;13.65;3.22;;;20.00;79.20;;;;;;4956320;29;20111;-76
2023/05/24 11:36:59;;;;;;;13.52;3.45;;;19.80;78.90;;;;;;4956314;28;20027;-76
2023/05/24 11:39:34;;;;;;;13.18;3.33;;;19.70;79.30;;;;;;4953289;28;20047;-75
2023/05/24 11:42:01;;;;;;;13.53;3.07;;;19.70;81.50;;;;;;4956681;28;20383;-75
2023/05/24 11:44:30;;;;;;;10.80;3.30;;;19.80;82.10;;;;;;4955845;28;20022;-75
2023/05/24 11:47:00;;;;;;;17.00;3.13;;;20.00;81.50;;;;;;4956425;28;20043;-76
2023/05/24 11:49:26;;;;;;;11.38;3.45;;;20.10;81.50;;;;;;4956375;28;20403;-75
2023/05/24 11:51:56;;;;;;;14.98;3.40;;;20.20;81.80;;;;;;4956640;28;20019;-77
2023/05/24 11:54:23;;;;;;;14.65;3.30;;;20.20;80.80;;;;;;4956101;28;20450;-76
2023/05/24 11:56:51;;;;;;;12.13;3.10;;;20.00;81.50;;;;;;4956114;28;20034;-74
2023/05/24 11:59:25;;;;;;;9.82;2.90;;;19.90;82.40;;;;;;4955874;28;20042;-76
2023/05/24 12:01:59;;;;;;;15.40;3.42;;;20.00;83.80;;;;;;4955648;28;20046;-76
2023/05/24 12:04:25;;;;;;;16.20;3.35;;;20.20;84.70;;;;;;4955789;29;20023;-77
2023/05/24 12:06:50;;;;;;;15.60;3.33;;;20.40;83.10;;;;;;4956001;28;20079;-77
2023/05/24 12:09:17;;;;;;;11.35;3.03;;;20.30;83.10;;;;;;4951553;28;20475;-76
2023/05/24 12:11:49;;;;;;;14.98;3.63;;;20.30;82.90;;;;;;4950695;28;20023;-76
2023/05/24 12:14:29;;;;;;;15.10;3.72;;;20.40;83.70;;;;;;4955577;28;20027;-77
2023/05/24 12:16:58;;;;;;;12.80;3.35;;;20.40;83.40;;;;;;4955634;28;20030;-76
2023/05/24 12:19:28;;;;;;;13.18;3.30;;;20.40;82.90;;;;;;4955518;28;20038;-76
2023/05/24 12:21:57;;;;;;;14.23;3.20;;;20.10;84.30;;;;;;4955568;28;20046;-76
2023/05/24 12:24:24;;;;;;;14.63;3.92;;;19.90;84.90;;;;;;4944875;28;20032;-75
2023/05/24 12:26:50;;;;;;;11.30;3.35;;;19.90;85.80;;;;;;4952596;29;20549;-76
2023/05/24 12:29:16;;;;;;;14.35;3.30;;;20.00;85.40;;;;;;4955108;28;20027;-76
2023/05/24 12:31:52;;;;;;;16.35;3.65;;;20.10;85.30;;;;;;4955425;28;20034;-75
2023/05/24 12:34:18;;;;;;;;;;;20.20;84.70;;;;;;4955987;29;20066;-75
2023/05/24 12:36:45;;;;;;;14.73;3.08;;;20.10;85.20;;;;;;4955274;28;19945;-76
2023/05/24 12:39:16;;;;;;;15.48;3.28;;;20.10;86.30;;;;;;4955344;28;20063;-76
2023/05/24 12:41:42;;;;;;;13.20;3.75;;;20.20;87.20;;;;;;4953829;29;20035;-76